| time (UTC) | temp F | wind direction | speed knots | gust knots | rain 1hr in | rain 24hr in | rain mn in | humidity % | barometer mb |
| 20260906154546 | 82 | 58 | 4.3 | 7.8 | 0.00 | 0.00 | 0.00 | 72 | 1014.8 |
| 20260906153038 | 81 | 339 | 0.9 | 7.0 | 0.00 | 0.00 | 0.00 | 75 | 1014.7 |
| 20260906151513 | 81 | 172 | 3.5 | 9.6 | 0.00 | 0.00 | 0.00 | 75 | 1014.5 |
| 20260906150018 | 80 | 24 | 2.6 | 7.0 | 0.00 | 0.00 | 0.00 | 75 | 1014.2 |
| 20260906144551 | 80 | 330 | 1.7 | 5.2 | 0.00 | 0.00 | 0.00 | 77 | 1014.2 |
| 20260906143107 | 80 | 347 | 0.9 | 4.3 | 0.00 | 0.00 | 0.00 | 80 | 1014.1 |
| 20260906141529 | 79 | 22 | 1.7 | 6.1 | 0.00 | 0.00 | 0.00 | 82 | 1013.8 |
| 20260906140040 | 79 | 58 | 0.9 | 4.3 | 0.00 | 0.00 | 0.00 | 83 | 1013.8 |
| 20260906134506 | 77 | 63 | 0.0 | 3.5 | 0.00 | 0.00 | 0.00 | 86 | 1014.0 |
| 20260906133006 | 76 | 360 | 0.0 | 5.2 | 0.00 | 0.00 | 0.00 | 87 | 1014.0 |
| 20260906131556 | 75 | 22 | 0.9 | 4.3 | 0.00 | 0.00 | 0.00 | 88 | 1014.1 |
| 20260906130049 | 75 | 35 | 0.9 | 4.3 | 0.00 | 0.00 | 0.00 | 90 | 1014.1 |
| 20260906124528 | 75 | 30 | 0.9 | 2.6 | 0.00 | 0.00 | 0.00 | 90 | 1014.0 |
| 20260906123033 | 75 | 66 | 1.7 | 3.5 | 0.00 | 0.00 | 0.00 | 91 | 1013.8 |
| 20260906121509 | 75 | 348 | 0.0 | 4.3 | 0.00 | 0.00 | 0.00 | 91 | 1013.7 |
| 20260906120006 | 75 | 345 | 0.0 | 1.7 | 0.00 | 0.00 | 0.00 | 91 | 1013.3 |
| 20260906114553 | 75 | 76 | 0.0 | 1.7 | 0.00 | 0.00 | 0.00 | 91 | 1013.1 |
| 20260906113052 | 75 | 72 | 0.9 | 5.2 | 0.00 | 0.00 | 0.00 | 90 | 1013.1 |
| 20260906111550 | 75 | 77 | 0.9 | 3.5 | 0.00 | 0.00 | 0.00 | 91 | 1013.0 |
| 20260906110052 | 76 | 19 | 0.0 | 1.7 | 0.00 | 0.00 | 0.00 | 91 | 1013.0 |
| 20260906104549 | 76 | 49 | 0.9 | 1.7 | 0.00 | 0.00 | 0.00 | 91 | 1013.0 |
| 20260906103050 | 76 | 73 | 0.0 | 3.5 | 0.00 | 0.00 | 0.00 | 91 | 1012.8 |
| 20260906101546 | 76 | 29 | 0.0 | 1.7 | 0.00 | 0.00 | 0.00 | 90 | 1012.6 |
| 20260906100044 | 77 | 24 | 0.0 | 3.5 | 0.00 | 0.00 | 0.00 | 90 | 1012.5 |
| 20260906094533 | 77 | 38 | 0.0 | 5.2 | 0.00 | 0.00 | 0.00 | 90 | 1012.5 |
| 20260906093027 | 77 | 22 | 0.0 | 1.7 | 0.00 | 0.00 | 0.00 | 90 | 1012.5 |
| 20260906091522 | 77 | 70 | 0.0 | 1.7 | 0.00 | 0.00 | 0.00 | 90 | 1012.3 |
| 20260906090007 | 77 | 27 | 0.0 | 0.9 | 0.00 | 0.00 | 0.00 | 90 | 1012.1 |
| 20260906084549 | 77 | 37 | 0.0 | 1.7 | 0.00 | 0.00 | 0.00 | 90 | 1012.0 |
| 20260906083050 | 76 | 354 | 0.0 | 0.9 | 0.00 | 0.00 | 0.00 | 91 | 1011.8 |
| 20260906081536 | 75 | 339 | 0.0 | 0.0 | 0.00 | 0.00 | 0.00 | 92 | 1011.8 |
| 20260906080030 | 75 | 339 | 0.0 | 0.0 | 0.00 | 0.00 | 0.00 | 93 | 1011.7 |
| 20260906074511 | 75 | 339 | 0.0 | 0.0 | 0.00 | 0.00 | 0.00 | 92 | 1011.7 |
| 20260906073009 | 75 | 339 | 0.0 | 0.0 | 0.00 | 0.00 | 0.00 | 92 | 1011.6 |
| 20260906071608 | 76 | 338 | 0.0 | 0.0 | 0.00 | 0.00 | 0.00 | 91 | 1011.8 |
| 20260906070058 | 76 | 339 | 0.0 | 0.0 | 0.00 | 0.00 | 0.00 | 91 | 1011.9 |
| 20260906064556 | 76 | 339 | 0.0 | 0.0 | 0.00 | 0.00 | 0.00 | 91 | 1011.9 |
| 20260906063050 | 76 | 339 | 0.0 | 0.0 | 0.00 | 0.00 | 0.00 | 90 | 1012.0 |
| 20260906061549 | 77 | 339 | 0.0 | 0.0 | 0.00 | 0.00 | 0.00 | 90 | 1012.2 |
| 20260906060050 | 77 | 339 | 0.0 | 0.0 | 0.00 | 0.00 | 0.00 | 90 | 1012.1 |
| 20260906054549 | 77 | 339 | 0.0 | 0.0 | 0.00 | 0.00 | 0.00 | 88 | 1012.1 |
| 20260906053044 | 77 | 339 | 0.0 | 0.0 | 0.00 | 0.00 | 0.00 | 88 | 1012.2 |
| 20260906051531 | 77 | 339 | 0.0 | 0.0 | 0.00 | 0.00 | 0.00 | 88 | 1012.0 |
| 20260906050047 | 77 | 339 | 0.0 | 0.0 | 0.00 | 0.00 | 0.00 | 87 | 1012.0 |
| 20260906044505 | 78 | 338 | 0.0 | 0.0 | 0.00 | 0.00 | 0.00 | 86 | 1012.0 |
| 20260906043006 | 78 | 339 | 0.0 | 0.0 | 0.00 | 0.00 | 0.00 | 85 | 1011.9 |
| 20260906041546 | 79 | 338 | 0.0 | 0.0 | 0.00 | 0.00 | 0.00 | 84 | 1011.8 |
| 20260906040047 | 80 | 339 | 0.0 | 0.0 | 0.00 | 0.00 | 0.00 | 83 | 1011.6 |
| 20260906034541 | 81 | 339 | 0.0 | 0.0 | 0.00 | 0.00 | 0.00 | 80 | 1011.5 |
| 20260906033035 | 81 | 339 | 0.0 | 0.0 | 0.00 | 0.00 | 0.00 | 78 | 1011.5 |
| 20260906031540 | 81 | 339 | 0.0 | 0.0 | 0.00 | 0.00 | 0.00 | 77 | 1011.3 |
| 20260906030034 | 82 | 339 | 0.0 | 0.0 | 0.00 | 0.00 | 0.00 | 77 | 1011.1 |
| 20260906024536 | 83 | 339 | 0.0 | 0.0 | 0.00 | 0.00 | 0.00 | 75 | 1011.1 |
| 20260906023036 | 83 | 339 | 0.0 | 0.0 | 0.00 | 0.00 | 0.00 | 75 | 1011.0 |
| 20260906021532 | 83 | 339 | 0.0 | 0.0 | 0.00 | 0.00 | 0.00 | 74 | 1010.6 |
| 20260906020032 | 83 | 339 | 0.0 | 0.0 | 0.00 | 0.00 | 0.00 | 76 | 1010.4 |
| 20260906014534 | 85 | 339 | 0.0 | 0.0 | 0.00 | 0.00 | 0.00 | 73 | 1010.2 |
| 20260906013013 | 86 | 339 | 0.0 | 0.0 | 0.00 | 0.00 | 0.00 | 65 | 1010.0 |
| 20260906011513 | 88 | 339 | 0.0 | 0.0 | 0.00 | 0.00 | 0.00 | 63 | 1009.8 |
| 20260906010054 | 89 | 339 | 0.0 | 0.0 | 0.00 | 0.00 | 0.00 | 60 | 1009.8 |
| 20260906004556 | 90 | 339 | 0.0 | 0.0 | 0.00 | 0.00 | 0.00 | 58 | 1009.7 |
| 20260906003036 | 91 | 339 | 0.0 | 0.9 | 0.00 | 0.00 | 0.00 | 55 | 1009.7 |
| 20260906001535 | 92 | 336 | 0.0 | 0.9 | 0.00 | 0.00 | 0.00 | 53 | 1009.8 |
| 20260906000018 | 93 | 10 | 0.0 | 6.1 | 0.00 | 0.00 | 0.00 | 51 | 1009.8 |
| 20260905234517 | 94 | 45 | 0.9 | 4.3 | 0.00 | 0.00 | 0.00 | 49 | 1009.8 |
| 20260905233059 | 95 | 70 | 0.0 | 4.3 | 0.00 | 0.00 | 0.00 | 48 | 1009.7 |
| 20260905231558 | 96 | 32 | 1.7 | 6.1 | 0.00 | 0.00 | 0.00 | 46 | 1009.8 |
| 20260905230040 | 97 | 56 | 1.7 | 7.0 | 0.00 | 0.00 | 0.00 | 44 | 1009.7 |
| 20260905224542 | 100 | 35 | 0.9 | 3.5 | 0.00 | 0.00 | 0.00 | 39 | 1009.6 |
| 20260905223021 | 100 | 267 | 0.0 | 5.2 | 0.00 | 0.00 | 0.00 | 38 | 1009.4 |
| 20260905221520 | 103 | 309 | 0.0 | 0.9 | 0.00 | 0.00 | 0.00 | 34 | 1009.6 |
| 20260905220100 | 101 | 320 | 0.0 | 5.2 | 0.00 | 0.00 | 0.00 | 35 | 1009.6 |
| 20260905214607 | 101 | 337 | 0.9 | 5.2 | 0.00 | 0.00 | 0.00 | 36 | 1009.8 |
| 20260905213044 | 101 | 332 | 0.0 | 3.5 | 0.00 | 0.00 | 0.00 | 37 | 1009.7 |
| 20260905211538 | 100 | 330 | 0.9 | 6.1 | 0.00 | 0.00 | 0.00 | 36 | 1009.7 |
| 20260905210028 | 100 | 349 | 1.7 | 6.1 | 0.00 | 0.00 | 0.00 | 39 | 1010.0 |
| 20260905204521 | 99 | 29 | 4.3 | 8.7 | 0.00 | 0.00 | 0.00 | 37 | 1010.1 |
| 20260905203020 | 99 | 51 | 2.6 | 7.0 | 0.00 | 0.00 | 0.00 | 39 | 1010.1 |
| 20260905201524 | 100 | 60 | 1.7 | 6.1 | 0.00 | 0.00 | 0.00 | 39 | 1010.3 |
| 20260905200028 | 101 | 324 | 2.6 | 4.3 | 0.00 | 0.00 | 0.00 | 38 | 1010.5 |
| 20260905194516 | 101 | 348 | 0.0 | 6.1 | 0.00 | 0.00 | 0.00 | 38 | 1010.5 |
| 20260905193025 | 101 | 329 | 0.9 | 4.3 | 0.00 | 0.00 | 0.00 | 39 | 1010.8 |
| 20260905191511 | 100 | 359 | 1.7 | 4.3 | 0.00 | 0.00 | 0.00 | 39 | 1010.9 |
| 20260905190051 | 100 | 295 | 1.7 | 7.0 | 0.00 | 0.00 | 0.00 | 40 | 1011.1 |
| 20260905184603 | 100 | 346 | 0.9 | 7.0 | 0.00 | 0.00 | 0.00 | 39 | 1011.3 |
| 20260905183031 | 100 | 29 | 0.0 | 4.3 | 0.00 | 0.00 | 0.00 | 42 | 1011.5 |
| 20260905181527 | 99 | 41 | 0.0 | 4.3 | 0.00 | 0.00 | 0.00 | 42 | 1011.7 |
| 20260905180007 | 99 | 339 | 0.9 | 4.3 | 0.00 | 0.00 | 0.00 | 44 | 1011.7 |
| 20260905174513 | 99 | 295 | 0.0 | 4.3 | 0.00 | 0.00 | 0.00 | 44 | 1011.9 |
| 20260905173048 | 98 | 239 | 1.7 | 6.1 | 0.00 | 0.00 | 0.00 | 46 | 1012.1 |
| 20260905171544 | 97 | 324 | 0.0 | 3.5 | 0.00 | 0.00 | 0.00 | 47 | 1012.2 |
| 20260905170022 | 96 | 273 | 1.7 | 6.1 | 0.00 | 0.00 | 0.00 | 51 | 1012.4 |
| 20260905164521 | 96 | 257 | 0.0 | 3.5 | 0.00 | 0.00 | 0.00 | 51 | 1012.5 |
| 20260905163001 | 95 | 322 | 0.0 | 5.2 | 0.00 | 0.00 | 0.00 | 52 | 1012.7 |
| 20260905161559 | 94 | 258 | 0.9 | 5.2 | 0.00 | 0.00 | 0.00 | 55 | 1012.7 |
| 20260905160050 | 92 | 243 | 1.7 | 6.1 | 0.00 | 0.00 | 0.00 | 58 | 1012.8 |